sensor_id;sensor_type;location;lat;lon;timestamp;temperature;humidity
15717;DHT22;7960;50.908;4.204;2023-06-10T00:00:26;22.90;90.20
15717;DHT22;7960;50.908;4.204;2023-06-10T00:02:53;22.80;90.30
15717;DHT22;7960;50.908;4.204;2023-06-10T00:05:21;22.70;90.50
15717;DHT22;7960;50.908;4.204;2023-06-10T00:07:47;22.70;90.60
15717;DHT22;7960;50.908;4.204;2023-06-10T00:10:16;22.60;90.70
15717;DHT22;7960;50.908;4.204;2023-06-10T00:12:43;22.60;90.90
15717;DHT22;7960;50.908;4.204;2023-06-10T00:15:10;22.70;90.90
15717;DHT22;7960;50.908;4.204;2023-06-10T00:17:37;22.70;91.00
15717;DHT22;7960;50.908;4.204;2023-06-10T00:20:06;22.70;91.10
15717;DHT22;7960;50.908;4.204;2023-06-10T00:22:34;22.60;91.20
15717;DHT22;7960;50.908;4.204;2023-06-10T00:25:01;22.50;91.30
15717;DHT22;7960;50.908;4.204;2023-06-10T00:27:30;22.50;91.40
15717;DHT22;7960;50.908;4.204;2023-06-10T00:30:01;22.50;91.40
15717;DHT22;7960;50.908;4.204;2023-06-10T00:32:29;22.40;91.50
15717;DHT22;7960;50.908;4.204;2023-06-10T00:34:56;22.40;91.60
15717;DHT22;7960;50.908;4.204;2023-06-10T00:37:23;22.30;91.70
15717;DHT22;7960;50.908;4.204;2023-06-10T00:39:50;22.30;91.70
15717;DHT22;7960;50.908;4.204;2023-06-10T00:42:17;22.30;91.80
15717;DHT22;7960;50.908;4.204;2023-06-10T00:44:46;22.20;91.90
15717;DHT22;7960;50.908;4.204;2023-06-10T00:47:13;22.30;91.90
15717;DHT22;7960;50.908;4.204;2023-06-10T00:49:40;22.30;91.90
15717;DHT22;7960;50.908;4.204;2023-06-10T00:52:08;22.30;92.00
15717;DHT22;7960;50.908;4.204;2023-06-10T00:54:36;22.20;92.10
15717;DHT22;7960;50.908;4.204;2023-06-10T00:57:04;22.20;92.10
15717;DHT22;7960;50.908;4.204;2023-06-10T00:59:32;22.10;92.20
15717;DHT22;7960;50.908;4.204;2023-06-10T01:02:01;22.10;92.30
15717;DHT22;7960;50.908;4.204;2023-06-10T01:04:29;22.10;92.30
15717;DHT22;7960;50.908;4.204;2023-06-10T01:07:02;22.10;92.30
15717;DHT22;7960;50.908;4.204;2023-06-10T01:09:41;22.10;92.30
15717;DHT22;7960;50.908;4.204;2023-06-10T01:12:19;22.10;92.40
15717;DHT22;7960;50.908;4.204;2023-06-10T01:14:49;22.20;92.40
15717;DHT22;7960;50.908;4.204;2023-06-10T01:17:19;22.00;92.40
15717;DHT22;7960;50.908;4.204;2023-06-10T01:19:53;22.00;92.70
15717;DHT22;7960;50.908;4.204;2023-06-10T01:22:23;22.10;92.60
15717;DHT22;7960;50.908;4.204;2023-06-10T01:24:51;22.10;92.50
15717;DHT22;7960;50.908;4.204;2023-06-10T01:27:21;22.00;92.50
15717;DHT22;7960;50.908;4.204;2023-06-10T01:29:53;22.00;92.60
15717;DHT22;7960;50.908;4.204;2023-06-10T01:32:28;22.00;92.70
15717;DHT22;7960;50.908;4.204;2023-06-10T01:34:56;21.90;92.80
15717;DHT22;7960;50.908;4.204;2023-06-10T01:37:26;21.90;93.00
15717;DHT22;7960;50.908;4.204;2023-06-10T01:39:56;21.90;93.10
15717;DHT22;7960;50.908;4.204;2023-06-10T01:42:23;22.00;93.10
15717;DHT22;7960;50.908;4.204;2023-06-10T01:44:51;21.90;93.00
15717;DHT22;7960;50.908;4.204;2023-06-10T01:47:18;21.90;93.10
15717;DHT22;7960;50.908;4.204;2023-06-10T01:49:45;21.80;93.10
15717;DHT22;7960;50.908;4.204;2023-06-10T01:52:12;21.80;93.30
15717;DHT22;7960;50.908;4.204;2023-06-10T01:54:40;21.60;93.30
15717;DHT22;7960;50.908;4.204;2023-06-10T01:57:07;21.60;93.60
15717;DHT22;7960;50.908;4.204;2023-06-10T01:59:34;21.70;93.60
15717;DHT22;7960;50.908;4.204;2023-06-10T02:02:02;21.60;93.50
15717;DHT22;7960;50.908;4.204;2023-06-10T02:04:29;21.50;93.80
15717;DHT22;7960;50.908;4.204;2023-06-10T02:06:55;21.50;93.90
15717;DHT22;7960;50.908;4.204;2023-06-10T02:09:22;21.60;94.00
15717;DHT22;7960;50.908;4.204;2023-06-10T02:11:52;21.60;94.00
15717;DHT22;7960;50.908;4.204;2023-06-10T02:14:19;21.60;93.90
15717;DHT22;7960;50.908;4.204;2023-06-10T02:16:46;21.40;94.00
15717;DHT22;7960;50.908;4.204;2023-06-10T02:19:13;21.30;94.20
15717;DHT22;7960;50.908;4.204;2023-06-10T02:21:40;21.40;94.40
15717;DHT22;7960;50.908;4.204;2023-06-10T02:24:07;21.50;94.40
15717;DHT22;7960;50.908;4.204;2023-06-10T02:26:34;21.40;94.50
15717;DHT22;7960;50.908;4.204;2023-06-10T02:29:02;21.40;94.50
15717;DHT22;7960;50.908;4.204;2023-06-10T02:31:29;21.30;94.70
15717;DHT22;7960;50.908;4.204;2023-06-10T02:33:56;21.10;94.90
15717;DHT22;7960;50.908;4.204;2023-06-10T02:36:23;21.40;95.00
15717;DHT22;7960;50.908;4.204;2023-06-10T02:38:53;21.50;95.00
15717;DHT22;7960;50.908;4.204;2023-06-10T02:41:19;21.30;95.10
15717;DHT22;7960;50.908;4.204;2023-06-10T02:43:47;21.40;95.00
15717;DHT22;7960;50.908;4.204;2023-06-10T02:46:15;21.40;95.00
15717;DHT22;7960;50.908;4.204;2023-06-10T02:48:43;21.30;95.00
15717;DHT22;7960;50.908;4.204;2023-06-10T02:51:10;21.40;95.20
15717;DHT22;7960;50.908;4.204;2023-06-10T02:53:37;21.20;95.30
15717;DHT22;7960;50.908;4.204;2023-06-10T02:56:04;21.20;95.20
15717;DHT22;7960;50.908;4.204;2023-06-10T02:58:31;21.10;95.50
15717;DHT22;7960;50.908;4.204;2023-06-10T03:00:58;21.00;95.60
15717;DHT22;7960;50.908;4.204;2023-06-10T03:03:26;20.90;95.90
15717;DHT22;7960;50.908;4.204;2023-06-10T03:05:53;21.00;96.00
15717;DHT22;7960;50.908;4.204;2023-06-10T03:08:20;21.10;96.00
15717;DHT22;7960;50.908;4.204;2023-06-10T03:10:46;21.00;96.00
15717;DHT22;7960;50.908;4.204;2023-06-10T03:13:13;21.10;96.10
15717;DHT22;7960;50.908;4.204;2023-06-10T03:15:41;21.00;96.10
15717;DHT22;7960;50.908;4.204;2023-06-10T03:18:07;21.00;96.20
15717;DHT22;7960;50.908;4.204;2023-06-10T03:20:36;21.00;96.30
15717;DHT22;7960;50.908;4.204;2023-06-10T03:23:04;21.00;96.50
15717;DHT22;7960;50.908;4.204;2023-06-10T03:25:31;20.80;96.70
15717;DHT22;7960;50.908;4.204;2023-06-10T03:27:58;20.90;96.70
15717;DHT22;7960;50.908;4.204;2023-06-10T03:30:25;20.80;96.80
15717;DHT22;7960;50.908;4.204;2023-06-10T03:32:52;20.70;96.90
15717;DHT22;7960;50.908;4.204;2023-06-10T03:35:19;20.70;97.20
15717;DHT22;7960;50.908;4.204;2023-06-10T03:37:47;20.80;97.20
15717;DHT22;7960;50.908;4.204;2023-06-10T03:40:14;20.70;97.20
15717;DHT22;7960;50.908;4.204;2023-06-10T03:42:41;20.70;97.40
15717;DHT22;7960;50.908;4.204;2023-06-10T03:45:10;20.60;97.50
15717;DHT22;7960;50.908;4.204;2023-06-10T03:47:37;20.70;97.60
15717;DHT22;7960;50.908;4.204;2023-06-10T03:50:06;20.60;97.60
15717;DHT22;7960;50.908;4.204;2023-06-10T03:52:34;20.70;97.80
15717;DHT22;7960;50.908;4.204;2023-06-10T03:55:03;20.70;97.80
15717;DHT22;7960;50.908;4.204;2023-06-10T03:57:31;20.60;97.90
15717;DHT22;7960;50.908;4.204;2023-06-10T03:59:58;20.50;98.10
15717;DHT22;7960;50.908;4.204;2023-06-10T04:02:25;20.40;98.40
15717;DHT22;7960;50.908;4.204;2023-06-10T04:04:51;20.40;98.60
15717;DHT22;7960;50.908;4.204;2023-06-10T04:07:18;20.30;98.70
15717;DHT22;7960;50.908;4.204;2023-06-10T04:09:45;20.20;99.00
15717;DHT22;7960;50.908;4.204;2023-06-10T04:12:14;20.30;99.10
15717;DHT22;7960;50.908;4.204;2023-06-10T04:14:42;20.20;99.30
15717;DHT22;7960;50.908;4.204;2023-06-10T04:17:09;20.30;99.40
15717;DHT22;7960;50.908;4.204;2023-06-10T04:19:36;20.20;99.40
15717;DHT22;7960;50.908;4.204;2023-06-10T04:22:04;20.10;99.70
15717;DHT22;7960;50.908;4.204;2023-06-10T04:24:31;20.10;99.90
15717;DHT22;7960;50.908;4.204;2023-06-10T04:26:58;20.20;99.90
15717;DHT22;7960;50.908;4.204;2023-06-10T04:29:27;20.20;99.90
15717;DHT22;7960;50.908;4.204;2023-06-10T04:31:54;20.10;99.90
15717;DHT22;7960;50.908;4.204;2023-06-10T04:34:33;20.20;99.90
15717;DHT22;7960;50.908;4.204;2023-06-10T04:37:00;20.20;99.90
15717;DHT22;7960;50.908;4.204;2023-06-10T04:39:27;20.30;99.90
15717;DHT22;7960;50.908;4.204;2023-06-10T04:41:53;20.30;99.90
15717;DHT22;7960;50.908;4.204;2023-06-10T04:44:20;20.20;99.90
15717;DHT22;7960;50.908;4.204;2023-06-10T04:46:49;20.20;99.90
15717;DHT22;7960;50.908;4.204;2023-06-10T04:49:15;20.40;99.90
15717;DHT22;7960;50.908;4.204;2023-06-10T04:51:42;20.40;99.90
15717;DHT22;7960;50.908;4.204;2023-06-10T04:54:09;20.30;99.90
15717;DHT22;7960;50.908;4.204;2023-06-10T04:56:36;20.30;99.90
15717;DHT22;7960;50.908;4.204;2023-06-10T04:59:04;20.20;99.90
15717;DHT22;7960;50.908;4.204;2023-06-10T05:01:31;20.20;99.90
15717;DHT22;7960;50.908;4.204;2023-06-10T05:03:59;20.20;99.90
15717;DHT22;7960;50.908;4.204;2023-06-10T05:06:26;20.40;99.90
15717;DHT22;7960;50.908;4.204;2023-06-10T05:08:53;20.40;99.90
15717;DHT22;7960;50.908;4.204;2023-06-10T05:11:20;20.50;99.90
15717;DHT22;7960;50.908;4.204;2023-06-10T05:13:47;20.40;99.90
15717;DHT22;7960;50.908;4.204;2023-06-10T05:16:14;20.40;99.90
15717;DHT22;7960;50.908;4.204;2023-06-10T05:18:41;20.60;99.90
15717;DHT22;7960;50.908;4.204;2023-06-10T05:21:09;20.50;99.90
15717;DHT22;7960;50.908;4.204;2023-06-10T05:23:37;20.60;99.90
15717;DHT22;7960;50.908;4.204;2023-06-10T05:26:04;20.60;99.90
15717;DHT22;7960;50.908;4.204;2023-06-10T05:28:30;20.50;99.90
15717;DHT22;7960;50.908;4.204;2023-06-10T05:30:57;20.60;99.90
15717;DHT22;7960;50.908;4.204;2023-06-10T05:33:24;20.60;99.90
15717;DHT22;7960;50.908;4.204;2023-06-10T05:35:51;20.60;99.90
15717;DHT22;7960;50.908;4.204;2023-06-10T05:38:19;20.80;99.90
15717;DHT22;7960;50.908;4.204;2023-06-10T05:40:46;20.70;99.90
15717;DHT22;7960;50.908;4.204;2023-06-10T05:43:13;20.80;99.90
15717;DHT22;7960;50.908;4.204;2023-06-10T05:45:42;21.00;99.90
15717;DHT22;7960;50.908;4.204;2023-06-10T05:48:09;21.10;99.90
15717;DHT22;7960;50.908;4.204;2023-06-10T05:50:35;21.10;99.90
15717;DHT22;7960;50.908;4.204;2023-06-10T05:53:04;21.10;99.90
15717;DHT22;7960;50.908;4.204;2023-06-10T05:55:33;21.20;99.90
15717;DHT22;7960;50.908;4.204;2023-06-10T05:58:01;21.20;99.90
15717;DHT22;7960;50.908;4.204;2023-06-10T06:00:28;21.40;99.90
15717;DHT22;7960;50.908;4.204;2023-06-10T06:02:55;21.50;99.90
15717;DHT22;7960;50.908;4.204;2023-06-10T06:05:23;21.50;99.90
15717;DHT22;7960;50.908;4.204;2023-06-10T06:07:49;21.50;99.90
15717;DHT22;7960;50.908;4.204;2023-06-10T06:10:17;21.60;99.90
15717;DHT22;7960;50.908;4.204;2023-06-10T06:12:45;21.70;99.90
15717;DHT22;7960;50.908;4.204;2023-06-10T06:15:12;21.90;99.90
15717;DHT22;7960;50.908;4.204;2023-06-10T06:17:39;21.80;99.90
15717;DHT22;7960;50.908;4.204;2023-06-10T06:20:07;21.70;99.90
15717;DHT22;7960;50.908;4.204;2023-06-10T06:22:34;21.90;99.90
15717;DHT22;7960;50.908;4.204;2023-06-10T06:25:01;22.00;99.90
15717;DHT22;7960;50.908;4.204;2023-06-10T06:27:28;22.00;99.90
15717;DHT22;7960;50.908;4.204;2023-06-10T06:29:56;22.10;99.90
15717;DHT22;7960;50.908;4.204;2023-06-10T06:32:24;22.20;99.90
15717;DHT22;7960;50.908;4.204;2023-06-10T06:34:53;22.30;99.90
15717;DHT22;7960;50.908;4.204;2023-06-10T06:37:21;22.30;99.90
15717;DHT22;7960;50.908;4.204;2023-06-10T06:39:48;22.40;99.90
15717;DHT22;7960;50.908;4.204;2023-06-10T06:42:14;22.40;99.90
15717;DHT22;7960;50.908;4.204;2023-06-10T06:44:42;22.50;99.90
15717;DHT22;7960;50.908;4.204;2023-06-10T06:47:10;22.60;99.90
15717;DHT22;7960;50.908;4.204;2023-06-10T06:49:37;22.60;99.90
15717;DHT22;7960;50.908;4.204;2023-06-10T06:52:04;22.60;99.90
15717;DHT22;7960;50.908;4.204;2023-06-10T06:54:31;22.70;99.90
15717;DHT22;7960;50.908;4.204;2023-06-10T06:56:58;22.80;99.90
15717;DHT22;7960;50.908;4.204;2023-06-10T06:59:25;22.80;99.90
15717;DHT22;7960;50.908;4.204;2023-06-10T07:01:52;22.90;99.90
15717;DHT22;7960;50.908;4.204;2023-06-10T07:04:21;23.00;99.90
15717;DHT22;7960;50.908;4.204;2023-06-10T07:06:48;23.20;99.90
15717;DHT22;7960;50.908;4.204;2023-06-10T07:09:15;23.30;99.70
15717;DHT22;7960;50.908;4.204;2023-06-10T07:11:42;23.30;99.10
15717;DHT22;7960;50.908;4.204;2023-06-10T07:14:09;23.40;99.30
15717;DHT22;7960;50.908;4.204;2023-06-10T07:16:36;23.50;98.70
15717;DHT22;7960;50.908;4.204;2023-06-10T07:19:02;23.60;98.60
15717;DHT22;7960;50.908;4.204;2023-06-10T07:21:31;23.70;98.00
15717;DHT22;7960;50.908;4.204;2023-06-10T07:23:59;23.60;97.80
15717;DHT22;7960;50.908;4.204;2023-06-10T07:26:27;23.70;97.70
15717;DHT22;7960;50.908;4.204;2023-06-10T07:28:54;23.90;97.90
15717;DHT22;7960;50.908;4.204;2023-06-10T07:31:23;23.90;97.70
15717;DHT22;7960;50.908;4.204;2023-06-10T07:33:53;24.00;97.50
15717;DHT22;7960;50.908;4.204;2023-06-10T07:36:20;24.10;97.40
15717;DHT22;7960;50.908;4.204;2023-06-10T07:38:48;24.30;97.40
15717;DHT22;7960;50.908;4.204;2023-06-10T07:41:16;24.30;97.40
15717;DHT22;7960;50.908;4.204;2023-06-10T07:43:45;24.40;97.20
15717;DHT22;7960;50.908;4.204;2023-06-10T07:46:20;24.50;96.90
15717;DHT22;7960;50.908;4.204;2023-06-10T07:48:47;24.60;97.00
15717;DHT22;7960;50.908;4.204;2023-06-10T07:51:15;24.70;96.90
15717;DHT22;7960;50.908;4.204;2023-06-10T07:53:45;24.70;96.20
15717;DHT22;7960;50.908;4.204;2023-06-10T07:56:13;24.70;96.20
15717;DHT22;7960;50.908;4.204;2023-06-10T07:58:47;24.80;96.30
15717;DHT22;7960;50.908;4.204;2023-06-10T08:01:13;24.90;95.90
15717;DHT22;7960;50.908;4.204;2023-06-10T08:03:40;25.00;95.00
15717;DHT22;7960;50.908;4.204;2023-06-10T08:06:10;25.10;94.50
15717;DHT22;7960;50.908;4.204;2023-06-10T08:08:38;25.10;93.10
15717;DHT22;7960;50.908;4.204;2023-06-10T08:11:07;25.20;92.50
15717;DHT22;7960;50.908;4.204;2023-06-10T08:13:35;25.30;92.40
15717;DHT22;7960;50.908;4.204;2023-06-10T08:16:07;25.40;92.30
15717;DHT22;7960;50.908;4.204;2023-06-10T08:18:34;25.60;91.70
15717;DHT22;7960;50.908;4.204;2023-06-10T08:21:01;25.70;91.40
15717;DHT22;7960;50.908;4.204;2023-06-10T08:23:28;25.80;91.30
15717;DHT22;7960;50.908;4.204;2023-06-10T08:25:55;25.90;90.50
15717;DHT22;7960;50.908;4.204;2023-06-10T08:28:23;25.90;88.00
15717;DHT22;7960;50.908;4.204;2023-06-10T08:30:51;26.00;89.50
15717;DHT22;7960;50.908;4.204;2023-06-10T08:33:18;26.10;90.00
15717;DHT22;7960;50.908;4.204;2023-06-10T08:35:45;26.20;89.60
15717;DHT22;7960;50.908;4.204;2023-06-10T08:38:12;26.40;87.80
15717;DHT22;7960;50.908;4.204;2023-06-10T08:40:39;26.50;88.00
15717;DHT22;7960;50.908;4.204;2023-06-10T08:43:07;26.40;87.20
15717;DHT22;7960;50.908;4.204;2023-06-10T08:45:35;26.50;87.20
15717;DHT22;7960;50.908;4.204;2023-06-10T08:48:05;26.50;85.20
15717;DHT22;7960;50.908;4.204;2023-06-10T08:50:34;26.50;83.80
15717;DHT22;7960;50.908;4.204;2023-06-10T08:53:05;26.60;84.40
15717;DHT22;7960;50.908;4.204;2023-06-10T08:55:33;26.70;83.70
15717;DHT22;7960;50.908;4.204;2023-06-10T08:58:00;27.00;82.70
15717;DHT22;7960;50.908;4.204;2023-06-10T09:00:28;27.10;83.30
15717;DHT22;7960;50.908;4.204;2023-06-10T09:02:56;27.20;81.80
15717;DHT22;7960;50.908;4.204;2023-06-10T09:05:27;27.20;81.30
15717;DHT22;7960;50.908;4.204;2023-06-10T09:07:56;27.40;81.10
15717;DHT22;7960;50.908;4.204;2023-06-10T09:10:24;27.50;80.70
15717;DHT22;7960;50.908;4.204;2023-06-10T09:12:51;27.70;80.20
15717;DHT22;7960;50.908;4.204;2023-06-10T09:15:18;27.80;80.00
15717;DHT22;7960;50.908;4.204;2023-06-10T09:17:45;27.80;79.10
15717;DHT22;7960;50.908;4.204;2023-06-10T09:20:12;27.90;78.70
15717;DHT22;7960;50.908;4.204;2023-06-10T09:22:41;27.90;78.00
15717;DHT22;7960;50.908;4.204;2023-06-10T09:25:10;28.00;77.20
15717;DHT22;7960;50.908;4.204;2023-06-10T09:27:44;28.10;77.50
15717;DHT22;7960;50.908;4.204;2023-06-10T09:30:24;28.20;75.40
15717;DHT22;7960;50.908;4.204;2023-06-10T09:32:53;28.40;74.50
15717;DHT22;7960;50.908;4.204;2023-06-10T09:35:21;28.40;74.90
15717;DHT22;7960;50.908;4.204;2023-06-10T09:37:52;28.40;74.00
15717;DHT22;7960;50.908;4.204;2023-06-10T09:40:20;28.40;73.30
15717;DHT22;7960;50.908;4.204;2023-06-10T09:42:52;28.40;72.80
15717;DHT22;7960;50.908;4.204;2023-06-10T09:45:20;28.40;73.30
15717;DHT22;7960;50.908;4.204;2023-06-10T09:47:51;28.50;72.30
15717;DHT22;7960;50.908;4.204;2023-06-10T09:50:17;28.80;70.80
15717;DHT22;7960;50.908;4.204;2023-06-10T09:52:45;29.00;70.40
15717;DHT22;7960;50.908;4.204;2023-06-10T09:55:14;29.00;68.20
15717;DHT22;7960;50.908;4.204;2023-06-10T09:57:41;28.80;69.30
15717;DHT22;7960;50.908;4.204;2023-06-10T10:00:12;28.80;68.60
15717;DHT22;7960;50.908;4.204;2023-06-10T10:02:47;28.90;66.40
15717;DHT22;7960;50.908;4.204;2023-06-10T10:05:15;29.10;66.40
15717;DHT22;7960;50.908;4.204;2023-06-10T10:07:42;29.00;66.80
15717;DHT22;7960;50.908;4.204;2023-06-10T10:10:10;29.20;67.70
15717;DHT22;7960;50.908;4.204;2023-06-10T10:12:40;29.20;65.60
15717;DHT22;7960;50.908;4.204;2023-06-10T10:15:09;29.40;66.90
15717;DHT22;7960;50.908;4.204;2023-06-10T10:17:39;29.60;63.50
15717;DHT22;7960;50.908;4.204;2023-06-10T10:20:08;29.60;63.80
15717;DHT22;7960;50.908;4.204;2023-06-10T10:22:37;30.00;64.50
15717;DHT22;7960;50.908;4.204;2023-06-10T10:25:09;30.20;63.40
15717;DHT22;7960;50.908;4.204;2023-06-10T10:27:42;29.90;59.80
15717;DHT22;7960;50.908;4.204;2023-06-10T10:30:11;29.80;59.00
15717;DHT22;7960;50.908;4.204;2023-06-10T10:32:51;30.00;62.00
15717;DHT22;7960;50.908;4.204;2023-06-10T10:35:21;30.10;60.80
15717;DHT22;7960;50.908;4.204;2023-06-10T10:37:49;30.40;60.00
15717;DHT22;7960;50.908;4.204;2023-06-10T10:40:20;30.60;57.50
15717;DHT22;7960;50.908;4.204;2023-06-10T10:42:49;30.60;56.90
15717;DHT22;7960;50.908;4.204;2023-06-10T10:45:17;30.60;56.40
15717;DHT22;7960;50.908;4.204;2023-06-10T10:47:52;30.60;56.20
15717;DHT22;7960;50.908;4.204;2023-06-10T10:50:20;30.70;55.30
15717;DHT22;7960;50.908;4.204;2023-06-10T10:52:52;30.80;54.60
15717;DHT22;7960;50.908;4.204;2023-06-10T10:55:20;30.90;54.70
15717;DHT22;7960;50.908;4.204;2023-06-10T10:57:55;30.90;54.60
15717;DHT22;7960;50.908;4.204;2023-06-10T11:00:29;31.10;52.20
15717;DHT22;7960;50.908;4.204;2023-06-10T11:03:04;31.00;52.90
15717;DHT22;7960;50.908;4.204;2023-06-10T11:05:36;30.90;53.50
15717;DHT22;7960;50.908;4.204;2023-06-10T11:08:04;30.80;52.00
15717;DHT22;7960;50.908;4.204;2023-06-10T11:10:32;30.90;51.20
15717;DHT22;7960;50.908;4.204;2023-06-10T11:13:05;30.90;53.00
15717;DHT22;7960;50.908;4.204;2023-06-10T11:15:33;31.00;52.70
15717;DHT22;7960;50.908;4.204;2023-06-10T11:18:21;31.00;50.60
15717;DHT22;7960;50.908;4.204;2023-06-10T11:20:54;31.00;50.00
15717;DHT22;7960;50.908;4.204;2023-06-10T11:23:37;31.30;50.70
15717;DHT22;7960;50.908;4.204;2023-06-10T11:26:19;31.60;51.60
15717;DHT22;7960;50.908;4.204;2023-06-10T11:29:07;31.40;49.70
15717;DHT22;7960;50.908;4.204;2023-06-10T11:31:50;31.20;47.30
15717;DHT22;7960;50.908;4.204;2023-06-10T11:34:22;30.90;47.90
15717;DHT22;7960;50.908;4.204;2023-06-10T11:36:53;30.90;47.20
15717;DHT22;7960;50.908;4.204;2023-06-10T11:39:21;31.10;45.90
15717;DHT22;7960;50.908;4.204;2023-06-10T11:41:50;31.40;47.10
15717;DHT22;7960;50.908;4.204;2023-06-10T11:44:19;31.60;47.60
15717;DHT22;7960;50.908;4.204;2023-06-10T11:46:48;31.70;47.60
15717;DHT22;7960;50.908;4.204;2023-06-10T11:49:15;31.70;48.20
15717;DHT22;7960;50.908;4.204;2023-06-10T11:51:42;31.90;48.20
15717;DHT22;7960;50.908;4.204;2023-06-10T11:54:16;31.70;48.60
15717;DHT22;7960;50.908;4.204;2023-06-10T11:56:43;31.70;49.40
15717;DHT22;7960;50.908;4.204;2023-06-10T11:59:10;31.80;49.30
15717;DHT22;7960;50.908;4.204;2023-06-10T12:01:42;31.70;48.20
15717;DHT22;7960;50.908;4.204;2023-06-10T12:04:10;31.80;47.30
15717;DHT22;7960;50.908;4.204;2023-06-10T12:06:42;31.80;47.00
15717;DHT22;7960;50.908;4.204;2023-06-10T12:09:20;32.10;48.10
15717;DHT22;7960;50.908;4.204;2023-06-10T12:11:50;32.40;47.60
15717;DHT22;7960;50.908;4.204;2023-06-10T12:14:50;32.50;47.60
15717;DHT22;7960;50.908;4.204;2023-06-10T12:17:21;32.70;46.70
15717;DHT22;7960;50.908;4.204;2023-06-10T12:19:48;32.80;47.20
15717;DHT22;7960;50.908;4.204;2023-06-10T12:22:15;32.60;46.70
15717;DHT22;7960;50.908;4.204;2023-06-10T12:24:45;32.70;47.10
15717;DHT22;7960;50.908;4.204;2023-06-10T12:27:12;32.50;47.10
15717;DHT22;7960;50.908;4.204;2023-06-10T12:29:39;32.70;48.50
15717;DHT22;7960;50.908;4.204;2023-06-10T12:32:17;32.80;47.30
15717;DHT22;7960;50.908;4.204;2023-06-10T12:34:47;32.90;47.30
15717;DHT22;7960;50.908;4.204;2023-06-10T12:37:13;32.90;47.80
15717;DHT22;7960;50.908;4.204;2023-06-10T12:39:41;32.90;47.50
15717;DHT22;7960;50.908;4.204;2023-06-10T12:42:09;33.00;48.40
15717;DHT22;7960;50.908;4.204;2023-06-10T12:44:39;32.90;48.00
15717;DHT22;7960;50.908;4.204;2023-06-10T12:47:08;32.90;47.50
15717;DHT22;7960;50.908;4.204;2023-06-10T12:49:36;32.50;47.60
15717;DHT22;7960;50.908;4.204;2023-06-10T12:52:04;32.20;48.90
15717;DHT22;7960;50.908;4.204;2023-06-10T12:54:31;32.10;49.20
15717;DHT22;7960;50.908;4.204;2023-06-10T12:56:58;32.30;48.50
15717;DHT22;7960;50.908;4.204;2023-06-10T12:59:26;32.20;47.30
15717;DHT22;7960;50.908;4.204;2023-06-10T13:01:54;32.50;47.80
15717;DHT22;7960;50.908;4.204;2023-06-10T13:04:21;32.90;47.40
15717;DHT22;7960;50.908;4.204;2023-06-10T13:06:48;32.90;47.10
15717;DHT22;7960;50.908;4.204;2023-06-10T13:09:17;32.50;47.50
15717;DHT22;7960;50.908;4.204;2023-06-10T13:11:44;32.40;47.70
15717;DHT22;7960;50.908;4.204;2023-06-10T13:14:11;32.20;47.40
15717;DHT22;7960;50.908;4.204;2023-06-10T13:16:39;32.40;47.10
15717;DHT22;7960;50.908;4.204;2023-06-10T13:19:06;32.70;47.40
15717;DHT22;7960;50.908;4.204;2023-06-10T13:21:33;33.00;46.50
15717;DHT22;7960;50.908;4.204;2023-06-10T13:24:00;33.30;47.20
15717;DHT22;7960;50.908;4.204;2023-06-10T13:26:29;33.50;46.10
15717;DHT22;7960;50.908;4.204;2023-06-10T13:28:56;33.60;45.90
15717;DHT22;7960;50.908;4.204;2023-06-10T13:31:22;33.40;46.00
15717;DHT22;7960;50.908;4.204;2023-06-10T13:33:49;33.30;46.10
15717;DHT22;7960;50.908;4.204;2023-06-10T13:36:16;33.30;46.00
15717;DHT22;7960;50.908;4.204;2023-06-10T13:38:43;33.40;45.70
15717;DHT22;7960;50.908;4.204;2023-06-10T13:41:11;33.50;46.20
15717;DHT22;7960;50.908;4.204;2023-06-10T13:43:39;33.80;45.50
15717;DHT22;7960;50.908;4.204;2023-06-10T13:46:06;33.40;45.30
15717;DHT22;7960;50.908;4.204;2023-06-10T13:48:33;33.30;45.10
15717;DHT22;7960;50.908;4.204;2023-06-10T13:51:00;33.70;45.60
15717;DHT22;7960;50.908;4.204;2023-06-10T13:53:27;34.00;46.30
15717;DHT22;7960;50.908;4.204;2023-06-10T13:55:54;33.90;45.00
15717;DHT22;7960;50.908;4.204;2023-06-10T13:58:21;33.20;45.60
15717;DHT22;7960;50.908;4.204;2023-06-10T14:00:49;33.00;45.50
15717;DHT22;7960;50.908;4.204;2023-06-10T14:03:16;32.60;45.70
15717;DHT22;7960;50.908;4.204;2023-06-10T14:05:43;32.20;45.30
15717;DHT22;7960;50.908;4.204;2023-06-10T14:08:10;32.20;46.60
15717;DHT22;7960;50.908;4.204;2023-06-10T14:10:37;32.80;46.50
15717;DHT22;7960;50.908;4.204;2023-06-10T14:13:04;33.10;46.20
15717;DHT22;7960;50.908;4.204;2023-06-10T14:15:31;33.70;46.60
15717;DHT22;7960;50.908;4.204;2023-06-10T14:17:59;34.10;45.80
15717;DHT22;7960;50.908;4.204;2023-06-10T14:20:26;33.50;44.40
15717;DHT22;7960;50.908;4.204;2023-06-10T14:22:57;32.80;45.20
15717;DHT22;7960;50.908;4.204;2023-06-10T14:25:23;32.50;46.10
15717;DHT22;7960;50.908;4.204;2023-06-10T14:27:50;32.70;45.90
15717;DHT22;7960;50.908;4.204;2023-06-10T14:30:17;33.20;45.50
15717;DHT22;7960;50.908;4.204;2023-06-10T14:32:44;33.40;44.80
15717;DHT22;7960;50.908;4.204;2023-06-10T14:35:12;33.30;44.60
15717;DHT22;7960;50.908;4.204;2023-06-10T14:37:39;33.40;44.10
15717;DHT22;7960;50.908;4.204;2023-06-10T14:40:07;33.80;44.70
15717;DHT22;7960;50.908;4.204;2023-06-10T14:42:34;33.50;43.80
15717;DHT22;7960;50.908;4.204;2023-06-10T14:45:01;33.60;44.90
15717;DHT22;7960;50.908;4.204;2023-06-10T14:47:28;33.80;44.60
15717;DHT22;7960;50.908;4.204;2023-06-10T14:49:54;34.10;45.10
15717;DHT22;7960;50.908;4.204;2023-06-10T14:52:23;33.60;45.50
15717;DHT22;7960;50.908;4.204;2023-06-10T14:54:49;33.60;45.00
15717;DHT22;7960;50.908;4.204;2023-06-10T14:57:16;34.10;44.30
15717;DHT22;7960;50.908;4.204;2023-06-10T14:59:43;34.00;44.60
15717;DHT22;7960;50.908;4.204;2023-06-10T15:02:10;34.10;45.10
15717;DHT22;7960;50.908;4.204;2023-06-10T15:04:37;34.40;44.90
15717;DHT22;7960;50.908;4.204;2023-06-10T15:07:04;34.70;44.60
15717;DHT22;7960;50.908;4.204;2023-06-10T15:09:32;34.10;44.10
15717;DHT22;7960;50.908;4.204;2023-06-10T15:11:59;33.20;44.20
15717;DHT22;7960;50.908;4.204;2023-06-10T15:14:26;32.70;45.10
15717;DHT22;7960;50.908;4.204;2023-06-10T15:16:54;32.60;45.80
15717;DHT22;7960;50.908;4.204;2023-06-10T15:19:21;33.00;45.70
15717;DHT22;7960;50.908;4.204;2023-06-10T15:21:48;33.70;45.70
15717;DHT22;7960;50.908;4.204;2023-06-10T15:24:15;34.50;45.30
15717;DHT22;7960;50.908;4.204;2023-06-10T15:26:43;34.40;44.40
15717;DHT22;7960;50.908;4.204;2023-06-10T15:29:10;33.90;43.80
15717;DHT22;7960;50.908;4.204;2023-06-10T15:31:38;33.60;43.50
15717;DHT22;7960;50.908;4.204;2023-06-10T15:34:05;33.60;43.60
15717;DHT22;7960;50.908;4.204;2023-06-10T15:36:32;33.90;43.50
15717;DHT22;7960;50.908;4.204;2023-06-10T15:39:03;34.00;44.60
15717;DHT22;7960;50.908;4.204;2023-06-10T15:41:32;34.50;43.10
15717;DHT22;7960;50.908;4.204;2023-06-10T15:44:00;34.60;43.60
15717;DHT22;7960;50.908;4.204;2023-06-10T15:46:27;34.70;43.00
15717;DHT22;7960;50.908;4.204;2023-06-10T15:48:55;34.30;41.80
15717;DHT22;7960;50.908;4.204;2023-06-10T15:51:22;34.00;42.90